createdAt,value
2023-01-06T00:00:06.834Z,2.70
2023-01-06T00:05:31.020Z,2.70
2023-01-06T00:10:34.607Z,2.70
2023-01-06T00:15:38.883Z,2.70
2023-01-06T00:20:42.376Z,2.70
2023-01-06T00:25:52.810Z,2.60
2023-01-06T00:30:56.407Z,2.50
2023-01-06T00:36:01.027Z,2.50
2023-01-06T00:41:30.286Z,2.40
2023-01-06T00:46:35.171Z,2.20
2023-01-06T00:51:40.174Z,2.20
2023-01-06T00:56:48.533Z,2.00
2023-01-06T01:01:54.770Z,1.90
2023-01-06T01:06:59.215Z,1.70
2023-01-06T01:12:13.031Z,1.60
2023-01-06T01:17:22.843Z,1.50
2023-01-06T01:22:28.972Z,1.40
2023-01-06T01:27:32.842Z,1.40
2023-01-06T01:32:36.753Z,1.40
2023-01-06T01:37:40.732Z,1.40
2023-01-06T01:42:44.546Z,1.30
2023-01-06T01:48:01.510Z,1.40
2023-01-06T01:53:15.073Z,1.60
2023-01-06T01:58:31.703Z,1.80
2023-01-06T02:03:35.725Z,2.00
2023-01-06T02:08:42.103Z,2.10
2023-01-06T02:13:48.439Z,2.10
2023-01-06T02:19:20.676Z,2.10
2023-01-06T02:24:30.702Z,2.20
2023-01-06T02:30:06.206Z,2.10
2023-01-06T02:35:31.574Z,2.10
2023-01-06T02:41:02.906Z,2.10
2023-01-06T02:46:43.970Z,2.20
2023-01-06T02:52:13.939Z,2.30
2023-01-06T02:57:24.244Z,2.30
2023-01-06T03:02:30.748Z,2.40
2023-01-06T03:07:35.901Z,2.40
2023-01-06T03:12:52.121Z,2.40
2023-01-06T03:17:56.052Z,2.40
2023-01-06T03:23:00.116Z,2.20
2023-01-06T03:28:03.973Z,2.40
2023-01-06T03:33:23.854Z,2.30
2023-01-06T03:38:41.061Z,2.30
2023-01-06T03:44:06.400Z,2.30
2023-01-06T03:49:28.406Z,2.30
2023-01-06T03:54:52.975Z,2.30
2023-01-06T04:00:03.051Z,2.30
2023-01-06T04:05:09.492Z,2.30
2023-01-06T04:10:14.937Z,2.20
2023-01-06T04:15:24.402Z,2.20
2023-01-06T04:20:31.733Z,2.20
2023-01-06T04:25:35.681Z,2.20
2023-01-06T04:30:39.419Z,2.20
2023-01-06T04:35:44.862Z,2.20
2023-01-06T04:40:48.435Z,2.20
2023-01-06T04:45:52.153Z,2.20
2023-01-06T04:51:07.863Z,2.20
2023-01-06T04:56:13.277Z,2.20
2023-01-06T05:01:17.162Z,2.30
2023-01-06T05:06:21.451Z,2.20
2023-01-06T05:11:26.961Z,2.20
2023-01-06T05:16:33.651Z,2.10
2023-01-06T05:21:37.544Z,2.20
2023-01-06T05:26:42.073Z,2.10
2023-01-06T05:31:46.019Z,2.10
2023-01-06T05:36:49.804Z,2.00
2023-01-06T05:41:53.617Z,1.90
2023-01-06T05:46:57.421Z,1.90
2023-01-06T05:52:01.289Z,2.00
2023-01-06T05:57:07.562Z,2.00
2023-01-06T06:02:11.368Z,1.90
2023-01-06T06:07:15.571Z,1.80
2023-01-06T06:12:19.390Z,1.70
2023-01-06T06:17:23.226Z,1.60
2023-01-06T06:22:26.827Z,1.60
2023-01-06T06:27:30.591Z,1.50
2023-01-06T06:32:34.408Z,1.50
2023-01-06T06:37:37.950Z,1.50
2023-01-06T06:42:41.386Z,1.50
2023-01-06T06:47:44.917Z,1.50
2023-01-06T06:52:48.781Z,1.40
2023-01-06T06:57:53.402Z,1.40
2023-01-06T07:02:57.087Z,1.50
2023-01-06T07:08:01.091Z,1.50
2023-01-06T07:13:05.177Z,1.40
2023-01-06T07:18:09.215Z,1.50
2023-01-06T07:23:12.759Z,1.40
2023-01-06T07:28:17.809Z,1.30
2023-01-06T07:33:22.555Z,1.30
2023-01-06T07:38:26.800Z,1.40
2023-01-06T07:43:34.949Z,1.30
2023-01-06T07:48:39.106Z,1.30
2023-01-06T07:53:42.912Z,1.40
2023-01-06T07:58:46.791Z,1.60
2023-01-06T08:03:54.041Z,1.60
2023-01-06T08:08:57.770Z,1.70
2023-01-06T08:14:01.607Z,1.80
2023-01-06T08:19:05.722Z,1.70
2023-01-06T08:24:09.695Z,1.70
2023-01-06T08:29:13.666Z,1.70
2023-01-06T08:34:18.780Z,1.60
2023-01-06T08:39:22.891Z,1.60
2023-01-06T08:44:26.813Z,1.70
2023-01-06T08:49:30.804Z,1.60
2023-01-06T08:54:34.734Z,1.50
2023-01-06T08:59:38.304Z,1.60
2023-01-06T09:04:44.034Z,1.70
2023-01-06T09:09:47.934Z,1.80
2023-01-06T09:14:51.416Z,1.80
2023-01-06T09:19:55.388Z,1.80
2023-01-06T09:24:59.894Z,1.80
2023-01-06T09:30:05.305Z,1.90
2023-01-06T09:35:10.665Z,2.00
2023-01-06T09:40:28.704Z,2.10
2023-01-06T09:45:40.899Z,2.00
2023-01-06T09:50:49.313Z,2.10
2023-01-06T09:56:01.406Z,2.10
2023-01-06T10:01:13.771Z,2.10
2023-01-06T10:06:32.731Z,2.10
2023-01-06T10:11:51.201Z,2.10
2023-01-06T10:17:12.095Z,2.10
2023-01-06T10:22:22.072Z,2.10
2023-01-06T10:27:38.343Z,2.20
2023-01-06T10:32:42.984Z,2.20
2023-01-06T10:37:49.662Z,2.20
2023-01-06T10:43:07.417Z,2.20
2023-01-06T10:48:21.073Z,2.20
2023-01-06T10:53:25.189Z,2.20
2023-01-06T10:58:28.766Z,2.20
2023-01-06T11:03:34.798Z,2.20
2023-01-06T11:08:40.609Z,2.20
2023-01-06T11:13:50.832Z,2.10
2023-01-06T11:18:58.078Z,2.10
2023-01-06T11:24:18.157Z,2.20
2023-01-06T11:29:36.321Z,2.20
2023-01-06T11:34:40.555Z,2.20
2023-01-06T11:39:46.819Z,2.30
2023-01-06T11:44:54.044Z,2.40
2023-01-06T11:50:01.566Z,2.40
2023-01-06T11:55:08.556Z,2.40
2023-01-06T12:00:24.195Z,2.40
2023-01-06T12:06:05.661Z,2.30
2023-01-06T12:11:20.195Z,2.30
2023-01-06T12:16:40.590Z,2.30
2023-01-06T12:21:44.979Z,2.30
2023-01-06T12:26:49.978Z,2.40
2023-01-06T12:31:57.286Z,2.50
2023-01-06T12:37:32.114Z,2.50
2023-01-06T12:43:04.744Z,2.60
2023-01-06T12:48:40.315Z,2.60
2023-01-06T12:53:56.275Z,2.70
2023-01-06T12:59:15.078Z,2.60
2023-01-06T13:04:22.063Z,2.60
2023-01-06T13:09:39.640Z,2.60
2023-01-06T13:15:09.634Z,2.60
2023-01-06T13:20:39.553Z,2.40
2023-01-06T13:26:38.834Z,2.30
2023-01-06T13:32:01.201Z,2.00
2023-01-06T13:37:07.993Z,1.90
2023-01-06T13:42:18.038Z,1.70
2023-01-06T13:47:23.888Z,1.60
2023-01-06T13:52:30.940Z,1.40
2023-01-06T13:57:41.694Z,1.30
2023-01-06T14:02:46.629Z,1.30
2023-01-06T14:08:02.834Z,1.10
2023-01-06T14:13:33.149Z,1.10
2023-01-06T14:18:52.078Z,1.10
2023-01-06T14:24:07.617Z,1.10
2023-01-06T14:29:49.339Z,1.00
2023-01-06T14:35:03.962Z,1.10
2023-01-06T14:40:17.069Z,1.10
2023-01-06T14:45:27.214Z,1.10
2023-01-06T14:50:47.342Z,1.20
2023-01-06T14:55:52.225Z,1.10
2023-01-06T15:00:56.232Z,1.10
2023-01-06T15:06:22.051Z,1.10
2023-01-06T15:11:32.627Z,1.10
2023-01-06T15:16:40.565Z,1.10
2023-01-06T15:21:47.142Z,1.10
2023-01-06T15:26:53.283Z,1.10
2023-01-06T15:31:58.023Z,1.00
2023-01-06T15:37:04.312Z,1.00
2023-01-06T15:42:10.812Z,1.10
2023-01-06T15:47:14.615Z,1.10
2023-01-06T15:52:24.328Z,1.10
2023-01-06T15:57:31.485Z,1.20
2023-01-06T16:02:35.199Z,1.20
2023-01-06T16:07:42.473Z,1.30
2023-01-06T16:13:22.553Z,1.20
2023-01-06T16:18:34.410Z,1.20
2023-01-06T16:23:40.510Z,1.20
2023-01-06T16:28:51.336Z,1.30
2023-01-06T16:33:55.338Z,1.30
2023-01-06T16:38:58.957Z,1.30
2023-01-06T16:44:06.274Z,1.30
2023-01-06T16:49:11.082Z,1.30
2023-01-06T16:54:19.309Z,1.40
2023-01-06T16:59:23.741Z,1.50
2023-01-06T17:04:29.361Z,1.50
2023-01-06T17:09:33.525Z,1.60
2023-01-06T17:14:37.938Z,1.60
2023-01-06T17:19:42.835Z,1.60
2023-01-06T17:24:46.646Z,1.70
2023-01-06T17:29:51.427Z,1.80
2023-01-06T17:34:56.415Z,1.70
2023-01-06T17:40:00.214Z,1.80
2023-01-06T17:45:34.200Z,1.80
2023-01-06T17:50:48.238Z,1.80
2023-01-06T17:55:51.775Z,1.90
2023-01-06T18:00:55.479Z,1.90
2023-01-06T18:06:23.805Z,1.90
2023-01-06T18:11:35.243Z,2.00
2023-01-06T18:16:40.212Z,2.10
2023-01-06T18:21:46.217Z,2.20
2023-01-06T18:27:01.231Z,2.20
2023-01-06T18:32:23.216Z,2.20
2023-01-06T18:37:30.875Z,2.20
2023-01-06T18:42:54.737Z,2.20
2023-01-06T18:48:30.497Z,2.30
2023-01-06T18:53:44.095Z,2.40
2023-01-06T18:58:50.984Z,2.40
2023-01-06T19:04:16.029Z,2.50
2023-01-06T19:09:45.679Z,2.50
2023-01-06T19:14:54.067Z,2.50
2023-01-06T19:20:11.022Z,2.60
2023-01-06T19:25:25.719Z,2.50
2023-01-06T19:30:53.343Z,2.60
2023-01-06T19:36:36.168Z,2.50
2023-01-06T19:41:40.358Z,2.60
2023-01-06T19:46:47.995Z,2.60
2023-01-06T19:51:55.862Z,2.50
2023-01-06T19:57:00.423Z,2.60
2023-01-06T20:02:10.518Z,2.60
2023-01-06T20:07:16.015Z,2.70
2023-01-06T20:12:20.645Z,2.60
2023-01-06T20:17:25.104Z,2.60
2023-01-06T20:22:29.712Z,2.60
2023-01-06T20:27:36.293Z,2.60
2023-01-06T20:32:41.751Z,2.60
2023-01-06T20:37:46.317Z,2.60
2023-01-06T20:42:51.606Z,2.60
2023-01-06T20:47:55.386Z,2.70
2023-01-06T20:53:01.091Z,2.70
2023-01-06T20:58:06.445Z,2.70
2023-01-06T21:03:11.223Z,2.80
2023-01-06T21:08:16.599Z,2.90
2023-01-06T21:13:24.591Z,3.00
2023-01-06T21:18:29.098Z,3.10
2023-01-06T21:23:32.771Z,3.10
2023-01-06T21:28:36.357Z,3.20
2023-01-06T21:33:40.176Z,3.20
2023-01-06T21:38:44.237Z,3.10
2023-01-06T21:43:47.975Z,3.00
2023-01-06T21:48:51.914Z,3.00
2023-01-06T21:53:55.755Z,3.00
2023-01-06T21:59:00.338Z,3.00
2023-01-06T22:04:05.287Z,3.10
2023-01-06T22:09:11.618Z,3.10
2023-01-06T22:14:20.760Z,3.10
2023-01-06T22:19:26.546Z,3.10
2023-01-06T22:24:31.979Z,3.20
2023-01-06T22:29:35.746Z,3.20
2023-01-06T22:34:39.531Z,3.30
2023-01-06T22:39:44.475Z,3.40
2023-01-06T22:44:48.049Z,3.50
2023-01-06T22:49:53.235Z,3.40
2023-01-06T22:54:57.022Z,3.50
2023-01-06T23:00:01.113Z,3.60
2023-01-06T23:05:05.087Z,3.60
2023-01-06T23:10:12.742Z,3.70
2023-01-06T23:15:17.065Z,3.70
2023-01-06T23:20:21.262Z,3.70
2023-01-06T23:25:25.679Z,3.80
2023-01-06T23:30:30.986Z,3.90
2023-01-06T23:35:34.980Z,3.90
2023-01-06T23:40:39.427Z,3.90
2023-01-06T23:45:43.081Z,3.90
2023-01-06T23:50:51.570Z,3.90
2023-01-06T23:55:59.475Z,3.90
